Time;durP1;ratioP1;P1;durP2;ratioP2;P2;SDS_P1;SDS_P2;PMS_P1;PMS_P2;Temp;Humidity;BMP_temperature;BMP_pressure;BME280_temperature;BME280_humidity;BME280_pressure;Samples;Min_cycle;Max_cycle;Signal;HPM_P1;HPM_P2
2024/01/28 00:00:44;;;;;;;49.83;29.90;;;;;;;4.99;88.32;100192.00;4996294;28;20029;-69
2024/01/28 00:03:10;;;;;;;47.03;29.23;;;;;;;4.88;88.94;100183.94;5012228;28;20041;-67
2024/01/28 00:05:38;;;;;;;46.95;28.45;;;;;;;4.70;89.34;100145.19;5002689;28;20124;-69
2024/01/28 00:08:07;;;;;;;46.08;29.00;;;;;;;4.78;89.47;100139.69;5031608;28;20744;-69
2024/01/28 00:10:33;;;;;;;46.55;28.67;;;;;;;5.12;90.41;100198.25;5001840;28;20041;-68
2024/01/28 00:12:58;;;;;;;51.22;29.35;;;;;;;4.82;90.46;100160.09;4998983;28;20025;-67
2024/01/28 00:15:24;;;;;;;50.42;28.52;;;;;;;4.96;90.93;100205.03;5013951;28;20021;-67
2024/01/28 00:17:50;;;;;;;48.10;27.65;;;;;;;4.93;91.25;100197.44;5017032;28;20042;-67
2024/01/28 00:20:18;;;;;;;44.75;28.45;;;;;;;4.95;92.63;100204.19;5006981;28;20033;-70
2024/01/28 00:22:43;;;;;;;49.17;28.42;;;;;;;4.96;96.62;100202.44;5001641;28;20029;-68
2024/01/28 00:25:09;;;;;;;47.17;28.42;;;;;;;4.93;98.05;100175.06;4995561;28;20632;-68
2024/01/28 00:27:35;;;;;;;45.15;27.88;;;;;;;4.90;96.71;100153.75;5015120;28;20499;-67
2024/01/28 00:30:00;;;;;;;49.45;28.95;;;;;;;4.85;96.58;100145.41;5016004;28;20041;-68
2024/01/28 00:32:26;;;;;;;43.53;28.70;;;;;;;5.06;97.92;100203.72;5013639;28;20165;-67
2024/01/28 00:34:53;;;;;;;43.15;28.40;;;;;;;5.16;99.80;100212.66;5017951;28;20120;-68
2024/01/28 00:37:21;;;;;;;45.08;28.75;;;;;;;5.20;99.66;100206.50;5007894;28;20041;-70
2024/01/28 00:39:51;;;;;;;42.72;26.08;;;;;;;5.20;100.00;100203.91;5021871;28;20025;-67
2024/01/28 00:42:17;;;;;;;42.05;26.95;;;;;;;5.28;100.00;100205.28;4991050;28;20052;-68
2024/01/28 00:44:42;;;;;;;44.95;28.17;;;;;;;5.25;100.00;100195.09;5016845;28;20029;-67
2024/01/28 00:47:10;;;;;;;39.45;24.75;;;;;;;5.11;100.00;100196.59;5011865;28;20029;-67
2024/01/28 00:49:38;;;;;;;40.75;25.92;;;;;;;5.24;100.00;100208.91;5016053;28;20021;-68
2024/01/28 00:52:03;;;;;;;41.00;23.60;;;;;;;5.18;100.00;100179.94;5008724;28;20040;-67
2024/01/28 00:54:29;;;;;;;35.67;22.85;;;;;;;5.43;100.00;100206.31;5012787;28;20025;-68
2024/01/28 00:56:56;;;;;;;38.90;23.45;;;;;;;5.23;100.00;100174.53;5013613;28;20112;-70
2024/01/28 00:59:22;;;;;;;40.55;24.27;;;;;;;5.49;100.00;100204.25;4998327;28;20123;-68
2024/01/28 01:01:48;;;;;;;35.85;22.42;;;;;;;5.47;100.00;100208.66;4998651;28;20026;-67
2024/01/28 01:04:13;;;;;;;35.88;23.10;;;;;;;5.15;100.00;100158.63;5029704;28;20049;-68
2024/01/28 01:06:44;;;;;;;37.53;23.08;;;;;;;5.46;100.00;100213.88;5016143;28;20037;-68
2024/01/28 01:09:09;;;;;;;29.55;18.58;;;;;;;5.38;100.00;100203.94;5014902;28;20022;-67
2024/01/28 01:11:37;;;;;;;32.90;20.73;;;;;;;5.45;100.00;100212.22;5017320;28;20061;-68
2024/01/28 01:14:03;;;;;;;30.55;19.83;;;;;;;5.36;100.00;100204.00;5000303;28;20527;-67
2024/01/28 01:16:29;;;;;;;32.38;20.42;;;;;;;5.33;99.47;100214.47;5013173;28;20025;-66
2024/01/28 01:18:57;;;;;;;29.60;18.80;;;;;;;5.43;97.68;100214.06;4999881;28;20118;-67
2024/01/28 01:21:24;;;;;;;31.15;19.20;;;;;;;5.56;94.18;100217.72;5014361;28;20029;-66
2024/01/28 01:23:52;;;;;;;27.35;16.88;;;;;;;5.58;92.30;100214.16;5010354;28;20029;-69
2024/01/28 01:26:18;;;;;;;28.67;17.83;;;;;;;5.61;90.18;100220.91;5012186;28;20026;-67
2024/01/28 01:28:43;;;;;;;30.73;18.77;;;;;;;5.87;86.98;100234.28;5015992;28;20060;-67
2024/01/28 01:31:08;;;;;;;26.75;17.25;;;;;;;5.90;86.70;100240.16;4997499;28;20112;-68
2024/01/28 01:33:34;;;;;;;24.98;16.77;;;;;;;6.05;87.89;100242.91;5017778;28;20095;-68
2024/01/28 01:35:59;;;;;;;28.77;17.15;;;;;;;6.02;87.93;100240.47;5014525;28;20033;-67
2024/01/28 01:38:27;;;;;;;24.80;17.23;;;;;;;6.13;87.87;100248.53;4995922;28;20061;-66
2024/01/28 01:40:55;;;;;;;28.50;17.50;;;;;;;6.09;87.71;100247.00;5016343;28;20037;-69
2024/01/28 01:43:23;;;;;;;25.92;16.30;;;;;;;5.99;87.49;100241.47;5013039;28;20052;-68
2024/01/28 01:45:48;;;;;;;27.38;17.23;;;;;;;5.91;87.37;100252.16;5018145;28;20710;-67
2024/01/28 01:48:14;;;;;;;26.40;16.38;;;;;;;5.80;85.52;100209.69;4991359;28;20027;-68
2024/01/28 01:50:41;;;;;;;27.75;16.75;;;;;;;6.04;83.94;100247.25;5013561;28;20508;-68
2024/01/28 01:53:08;;;;;;;25.48;16.58;;;;;;;5.93;84.60;100244.31;4994322;28;20758;-68
2024/01/28 01:55:40;;;;;;;25.90;17.10;;;;;;;5.95;83.03;100257.97;4994701;28;20028;-67
2024/01/28 01:58:06;;;;;;;27.38;17.27;;;;;;;5.84;83.73;100257.66;4996890;28;20049;-69
2024/01/28 02:00:35;;;;;;;26.25;16.50;;;;;;;5.70;85.47;100242.88;5023719;28;20079;-66
2024/01/28 02:03:04;;;;;;;27.90;17.90;;;;;;;5.88;84.37;100257.47;5001426;28;20111;-66
2024/01/28 02:05:29;;;;;;;28.00;17.27;;;;;;;5.62;82.94;100206.25;5008969;28;20061;-68
2024/01/28 02:07:55;;;;;;;28.27;15.95;;;;;;;5.86;82.25;100261.00;4997586;28;20878;-69
2024/01/28 02:10:25;;;;;;;27.75;16.27;;;;;;;5.87;81.89;100260.09;5013107;28;20030;-68
2024/01/28 02:12:50;;;;;;;24.70;15.43;;;;;;;5.87;82.25;100268.69;5014287;28;20041;-67
2024/01/28 02:15:17;;;;;;;26.23;16.17;;;;;;;5.73;81.69;100273.66;4993940;28;20034;-66
2024/01/28 02:17:46;;;;;;;27.42;16.75;;;;;;;5.80;80.85;100282.78;4999536;28;20484;-67
2024/01/28 02:20:11;;;;;;;26.75;15.60;;;;;;;5.81;80.14;100281.91;5014988;28;20089;-68
2024/01/28 02:22:39;;;;;;;26.25;16.25;;;;;;;5.80;80.47;100271.63;5012180;28;20033;-67
2024/01/28 02:25:06;;;;;;;26.35;16.08;;;;;;;5.71;81.76;100263.44;5015404;28;20041;-69
2024/01/28 02:27:33;;;;;;;25.20;15.77;;;;;;;5.38;82.90;100222.84;5029166;28;20043;-70
2024/01/28 02:30:01;;;;;;;25.65;16.13;;;;;;;5.70;83.74;100271.25;4998650;28;20128;-67
2024/01/28 02:32:33;;;;;;;27.15;16.77;;;;;;;5.57;85.33;100250.34;5015323;28;20037;-68
2024/01/28 02:34:59;;;;;;;25.80;16.50;;;;;;;5.77;85.38;100262.31;4996607;28;20021;-69
2024/01/28 02:37:27;;;;;;;26.65;16.40;;;;;;;5.77;85.53;100270.88;5016503;28;20033;-68
2024/01/28 02:39:52;;;;;;;25.08;15.10;;;;;;;5.76;86.30;100268.38;5026865;28;20574;-68
2024/01/28 02:42:20;;;;;;;23.67;14.98;;;;;;;5.46;86.26;100231.94;4996704;28;20045;-68
2024/01/28 02:44:48;;;;;;;24.75;15.50;;;;;;;5.77;86.40;100272.63;5001921;28;20395;-68
2024/01/28 02:47:16;;;;;;;23.55;15.20;;;;;;;5.77;86.47;100276.03;5010268;28;20160;-70
2024/01/28 02:49:41;;;;;;;22.38;15.30;;;;;;;5.67;86.88;100277.38;5020473;28;20029;-68
2024/01/28 02:52:06;;;;;;;24.52;15.80;;;;;;;5.43;89.15;100238.09;5013615;28;20048;-70
2024/01/28 02:54:35;;;;;;;26.10;15.77;;;;;;;5.35;88.60;100214.41;5051256;28;20025;-67
2024/01/28 02:57:03;;;;;;;25.33;14.73;;;;;;;5.68;88.34;100273.06;5005205;28;21003;-70
2024/01/28 02:59:31;;;;;;;23.80;15.40;;;;;;;5.33;87.23;100237.69;5009969;28;20039;-67
2024/01/28 03:01:59;;;;;;;25.33;16.00;;;;;;;5.57;86.06;100277.00;5017712;28;20039;-68
2024/01/28 03:04:24;;;;;;;21.15;14.57;;;;;;;5.61;85.44;100279.44;4997866;28;20030;-64
2024/01/28 03:06:52;;;;;;;23.45;14.43;;;;;;;5.68;84.51;100294.56;5026693;28;20108;-69
2024/01/28 03:09:20;;;;;;;21.60;13.70;;;;;;;5.58;83.09;100295.88;5013036;28;20080;-69
2024/01/28 03:11:45;;;;;;;24.83;14.13;;;;;;;5.45;83.86;100290.44;5012807;28;20025;-68
2024/01/28 03:14:11;;;;;;;23.25;14.93;;;;;;;5.24;83.64;100258.75;4998755;28;20046;-67
2024/01/28 03:16:36;;;;;;;25.88;14.77;;;;;;;5.47;83.99;100288.63;5021219;28;20087;-67
2024/01/28 03:19:02;;;;;;;27.17;14.80;;;;;;;5.45;82.81;100284.47;5012435;28;20039;-67
2024/01/28 03:21:30;;;;;;;24.00;14.77;;;;;;;5.22;83.29;100254.56;5014047;28;20653;-69
2024/01/28 03:23:56;;;;;;;25.02;15.30;;;;;;;5.20;84.37;100247.75;5013723;28;20034;-66
2024/01/28 03:26:22;;;;;;;25.20;15.45;;;;;;;5.42;85.17;100293.19;5018007;28;20450;-69
2024/01/28 03:28:47;;;;;;;22.38;14.57;;;;;;;5.31;85.15;100290.25;5010887;28;20037;-67
2024/01/28 03:31:13;;;;;;;26.30;15.52;;;;;;;5.17;84.08;100247.06;5018191;28;20099;-67
2024/01/28 03:33:41;;;;;;;23.60;14.85;;;;;;;5.44;82.60;100290.53;5015945;28;20397;-66
2024/01/28 03:36:06;;;;;;;35.03;20.50;;;;;;;4.95;82.73;100247.19;5002067;28;20029;-68
2024/01/28 03:38:32;;;;;;;37.42;21.67;;;;;;;5.26;82.58;100305.94;5011007;28;20060;-69
2024/01/28 03:41:02;;;;;;;31.75;18.20;;;;;;;5.38;81.37;100307.13;5003659;28;20059;-68
2024/01/28 03:43:30;;;;;;;29.20;16.52;;;;;;;5.41;82.22;100296.66;5018084;28;20052;-68
2024/01/28 03:45:58;;;;;;;24.75;15.95;;;;;;;5.30;81.26;100297.16;4999341;28;20036;-68
2024/01/28 03:48:26;;;;;;;22.90;14.80;;;;;;;5.41;80.57;100301.81;5012183;28;20052;-67
2024/01/28 03:50:51;;;;;;;23.50;14.82;;;;;;;5.45;80.27;100305.09;5001212;28;20049;-67
2024/01/28 03:53:17;;;;;;;22.80;14.50;;;;;;;5.44;80.95;100299.13;5013771;28;20107;-70
2024/01/28 03:55:45;;;;;;;24.00;15.50;;;;;;;5.34;82.66;100298.69;5012320;28;20115;-68
2024/01/28 03:58:10;;;;;;;25.50;15.68;;;;;;;5.34;84.48;100296.09;5015951;28;20032;-68
2024/01/28 04:00:38;;;;;;;25.35;14.73;;;;;;;5.26;85.05;100292.22;5012629;28;20471;-66
2024/01/28 04:03:04;;;;;;;25.13;16.33;;;;;;;5.25;85.66;100295.69;5020652;28;20029;-69
2024/01/28 04:05:32;;;;;;;25.05;15.70;;;;;;;5.30;86.28;100304.06;5043744;28;20032;-68
2024/01/28 04:08:01;;;;;;;26.63;16.38;;;;;;;5.33;87.17;100304.75;5015879;28;20069;-68
2024/01/28 04:10:27;;;;;;;24.60;15.65;;;;;;;5.34;86.57;100305.59;4997256;28;20030;-68
2024/01/28 04:12:52;;;;;;;24.05;15.30;;;;;;;5.21;87.03;100310.47;4996164;28;20099;-66
2024/01/28 04:15:20;;;;;;;25.75;16.48;;;;;;;4.97;87.84;100271.97;4999014;28;20030;-66
2024/01/28 04:17:46;;;;;;;25.75;16.73;;;;;;;4.94;87.85;100269.53;5001747;28;21610;-68
2024/01/28 04:20:11;;;;;;;25.92;16.30;;;;;;;5.10;88.63;100310.94;5016555;28;20052;-69
2024/01/28 04:22:36;;;;;;;27.15;16.73;;;;;;;5.23;88.78;100315.56;5014824;28;20037;-68
2024/01/28 04:25:02;;;;;;;24.92;15.23;;;;;;;5.14;87.51;100301.34;5018288;28;20479;-69
2024/01/28 04:27:27;;;;;;;24.27;16.02;;;;;;;5.19;88.04;100312.28;5016415;28;20053;-68
2024/01/28 04:29:55;;;;;;;23.90;15.05;;;;;;;5.08;88.87;100305.03;5010236;28;20029;-68
2024/01/28 04:32:25;;;;;;;26.35;16.30;;;;;;;4.98;89.44;100306.31;5017805;28;20048;-67
2024/01/28 04:34:50;;;;;;;;;;;;;;;5.00;89.27;100307.09;5000167;28;20091;-68
2024/01/28 04:37:22;;;;;;;27.07;15.03;;;;;;;4.95;89.95;100298.75;5012990;28;20685;-67
2024/01/28 04:39:48;;;;;;;23.08;13.85;;;;;;;4.96;89.31;100300.41;5004429;28;20271;-69
2024/01/28 04:42:21;;;;;;;23.80;15.50;;;;;;;4.53;89.83;100235.28;5001376;28;20102;-67
2024/01/28 04:44:50;;;;;;;26.30;15.57;;;;;;;4.57;91.31;100252.28;5012876;28;20491;-66
2024/01/28 04:47:16;;;;;;;25.38;15.88;;;;;;;4.93;91.33;100292.81;4999875;28;20111;-69
2024/01/28 04:49:41;;;;;;;24.58;15.93;;;;;;;4.71;91.04;100255.09;5014150;28;20041;-69
2024/01/28 04:52:09;;;;;;;23.85;15.20;;;;;;;4.59;92.74;100258.22;5017248;28;20035;-67
2024/01/28 04:54:35;;;;;;;22.83;15.35;;;;;;;4.93;92.66;100301.38;5018846;28;20057;-68
2024/01/28 04:57:01;;;;;;;24.60;15.27;;;;;;;4.87;92.46;100298.22;5017261;28;20722;-69
2024/01/28 04:59:27;;;;;;;24.10;15.60;;;;;;;4.92;91.00;100314.34;5016778;28;20238;-70
2024/01/28 05:01:55;;;;;;;26.30;15.45;;;;;;;4.93;90.96;100295.41;4990284;28;20022;-70
2024/01/28 05:04:21;;;;;;;24.73;14.95;;;;;;;4.86;91.80;100306.88;5027224;28;20041;-69
2024/01/28 05:06:51;;;;;;;24.50;14.85;;;;;;;4.87;93.02;100301.63;5013518;28;20072;-69
2024/01/28 05:09:19;;;;;;;24.50;15.30;;;;;;;4.85;92.56;100297.47;4995963;28;20028;-70
2024/01/28 05:11:47;;;;;;;23.63;14.40;;;;;;;4.93;91.51;100308.28;5016010;28;20037;-68
2024/01/28 05:14:14;;;;;;;21.10;13.23;;;;;;;4.96;90.49;100311.53;4999092;28;20024;-66
2024/01/28 05:16:47;;;;;;;19.50;12.55;;;;;;;5.05;88.53;100307.72;5016219;28;20097;-69
2024/01/28 05:19:12;;;;;;;20.70;12.98;;;;;;;4.94;88.67;100279.03;5010663;28;20021;-65
2024/01/28 05:21:40;;;;;;;23.15;13.32;;;;;;;5.17;89.03;100312.34;5016357;28;20039;-68
2024/01/28 05:24:06;;;;;;;21.48;13.30;;;;;;;5.15;89.56;100316.75;5013068;28;20025;-67
2024/01/28 05:26:32;;;;;;;21.38;13.77;;;;;;;5.19;90.03;100326.00;4996548;28;20036;-68
2024/01/28 05:29:05;;;;;;;22.48;13.18;;;;;;;5.06;90.90;100311.16;5015063;28;21553;-67
2024/01/28 05:31:30;;;;;;;19.48;12.70;;;;;;;5.12;91.61;100321.19;4993430;28;20150;-68
2024/01/28 05:33:58;;;;;;;22.75;13.27;;;;;;;4.94;92.04;100318.50;4996096;28;20389;-67
2024/01/28 05:36:24;;;;;;;19.73;12.80;;;;;;;4.82;92.25;100321.66;5013376;28;20201;-67
2024/01/28 05:38:49;;;;;;;23.17;15.30;;;;;;;4.87;92.69;100342.88;5014880;28;20056;-67
2024/01/28 05:41:14;;;;;;;22.08;13.38;;;;;;;4.91;91.19;100325.53;5015342;28;20029;-66
2024/01/28 05:43:42;;;;;;;21.30;13.32;;;;;;;4.92;90.21;100332.38;5003842;28;20045;-69
2024/01/28 05:46:13;;;;;;;21.42;13.68;;;;;;;4.95;89.78;100333.09;5013864;28;20022;-68
2024/01/28 05:48:43;;;;;;;23.75;13.50;;;;;;;4.93;88.84;100334.91;4993149;28;20036;-65
2024/01/28 05:51:12;;;;;;;21.15;12.82;;;;;;;4.90;88.89;100331.63;5015449;28;20083;-70
2024/01/28 05:53:39;;;;;;;20.83;13.00;;;;;;;4.94;88.25;100335.72;5013978;28;20045;-69
2024/01/28 05:56:07;;;;;;;21.58;12.45;;;;;;;4.99;87.88;100319.16;4999677;28;20033;-68
2024/01/28 05:58:33;;;;;;;20.48;13.20;;;;;;;5.10;86.89;100323.84;5014268;28;20040;-68
2024/01/28 06:01:02;;;;;;;22.42;12.98;;;;;;;5.12;88.02;100336.66;5008459;28;20119;-69
2024/01/28 06:03:27;;;;;;;19.73;12.32;;;;;;;5.02;89.92;100336.25;5008484;28;20030;-66
2024/01/28 06:05:52;;;;;;;21.20;13.23;;;;;;;5.03;90.01;100344.81;5004590;28;20033;-69
2024/01/28 06:08:18;;;;;;;23.65;13.45;;;;;;;4.82;90.74;100329.38;5014185;28;20041;-68
2024/01/28 06:10:45;;;;;;;20.45;12.32;;;;;;;4.70;89.63;100298.97;5000286;28;20916;-68
2024/01/28 06:13:11;;;;;;;18.55;11.38;;;;;;;4.98;88.92;100342.41;5016687;28;20063;-66
2024/01/28 06:15:37;;;;;;;21.85;11.75;;;;;;;5.03;88.77;100334.50;5015185;28;20029;-67
2024/01/28 06:18:05;;;;;;;21.95;12.80;;;;;;;5.07;89.03;100336.03;5014569;28;20037;-69
2024/01/28 06:20:35;;;;;;;20.23;12.43;;;;;;;5.11;88.72;100338.41;5031514;28;20881;-67
2024/01/28 06:23:01;;;;;;;19.42;12.05;;;;;;;5.07;89.28;100333.44;5001199;28;20053;-67
2024/01/28 06:25:29;;;;;;;23.80;13.30;;;;;;;5.03;90.91;100345.63;4996167;28;20117;-67
2024/01/28 06:27:59;;;;;;;17.10;11.00;;;;;;;4.97;89.96;100340.75;5014350;28;20041;-66
2024/01/28 06:30:27;;;;;;;17.13;11.63;;;;;;;4.90;90.39;100336.78;5014997;28;20025;-66
2024/01/28 06:32:53;;;;;;;19.63;12.20;;;;;;;4.93;91.26;100340.06;4998604;28;20032;-68
2024/01/28 06:35:20;;;;;;;20.92;12.68;;;;;;;5.03;91.29;100355.94;5016383;28;20136;-69
2024/01/28 06:37:46;;;;;;;17.52;11.98;;;;;;;4.69;92.32;100295.56;5011813;28;20125;-69
2024/01/28 06:40:12;;;;;;;20.75;12.73;;;;;;;5.06;92.25;100355.00;5023730;28;20033;-68
2024/01/28 06:42:38;;;;;;;22.15;12.68;;;;;;;4.99;93.88;100351.84;5013190;28;20029;-67
2024/01/28 06:45:03;;;;;;;21.83;13.38;;;;;;;4.98;94.89;100352.72;4996927;28;20029;-70
2024/01/28 06:47:29;;;;;;;19.35;12.40;;;;;;;5.05;95.53;100355.88;5012112;28;20041;-66
2024/01/28 06:49:54;;;;;;;22.08;13.18;;;;;;;4.99;94.59;100349.25;5008635;28;20092;-68
2024/01/28 06:52:19;;;;;;;20.23;12.60;;;;;;;4.82;94.93;100334.53;5011254;28;20041;-71
2024/01/28 06:54:47;;;;;;;19.48;12.63;;;;;;;4.99;94.97;100350.09;5014406;28;20219;-68
2024/01/28 06:57:13;;;;;;;20.70;12.85;;;;;;;4.73;94.26;100311.72;5017662;28;20060;-67
2024/01/28 06:59:40;;;;;;;20.55;11.95;;;;;;;4.96;94.91;100360.53;4999285;28;20037;-67
2024/01/28 07:02:08;;;;;;;22.58;13.07;;;;;;;4.88;95.13;100356.63;4997233;28;20042;-68
2024/01/28 07:04:33;;;;;;;22.13;12.15;;;;;;;4.79;95.33;100355.28;5001371;28;20109;-68
2024/01/28 07:06:59;;;;;;;22.20;12.40;;;;;;;4.78;94.62;100358.75;5008098;28;21398;-70
2024/01/28 07:09:27;;;;;;;21.30;12.50;;;;;;;4.70;94.24;100359.06;5010776;28;20041;-68
2024/01/28 07:11:52;;;;;;;18.35;11.35;;;;;;;4.66;93.42;100369.59;5010965;28;20033;-68
2024/01/28 07:14:22;;;;;;;19.77;12.10;;;;;;;4.61;92.58;100373.16;5010287;28;20099;-67
2024/01/28 07:16:49;;;;;;;19.80;11.20;;;;;;;4.27;92.05;100322.22;4993668;28;20037;-70
2024/01/28 07:19:15;;;;;;;20.35;11.77;;;;;;;4.55;92.14;100364.88;4995893;28;20049;-68
2024/01/28 07:21:40;;;;;;;18.60;10.82;;;;;;;4.31;91.72;100330.63;5007036;28;20038;-67
2024/01/28 07:24:09;;;;;;;17.92;11.50;;;;;;;4.19;91.66;100324.25;5010250;28;20032;-68
2024/01/28 07:26:37;;;;;;;20.17;12.45;;;;;;;4.56;92.05;100380.28;4993565;28;20066;-71
2024/01/28 07:29:03;;;;;;;17.08;9.73;;;;;;;4.56;92.52;100379.41;5022614;28;20043;-68
2024/01/28 07:31:28;;;;;;;18.50;10.45;;;;;;;4.63;92.48;100383.41;5010482;28;20036;-69
2024/01/28 07:33:59;;;;;;;19.05;12.23;;;;;;;4.65;92.92;100373.06;5013403;28;20025;-69
2024/01/28 07:36:24;;;;;;;18.08;11.40;;;;;;;4.66;95.09;100382.47;5009647;28;20964;-68
2024/01/28 07:38:52;;;;;;;17.92;11.73;;;;;;;4.59;94.82;100379.31;5016135;28;20063;-66
2024/01/28 07:41:17;;;;;;;22.83;11.90;;;;;;;4.65;95.06;100366.16;5016629;28;20087;-66
2024/01/28 07:43:43;;;;;;;18.02;11.95;;;;;;;4.73;95.59;100382.16;5011421;28;20442;-67
2024/01/28 07:46:09;;;;;;;19.23;12.30;;;;;;;4.76;97.19;100392.34;5018169;28;20083;-69
2024/01/28 07:48:35;;;;;;;19.00;12.15;;;;;;;4.73;97.14;100384.72;5012955;28;20040;-68
2024/01/28 07:51:00;;;;;;;21.33;11.80;;;;;;;4.73;96.88;100381.31;5016999;28;20469;-66
2024/01/28 07:53:26;;;;;;;17.92;11.45;;;;;;;4.41;98.58;100339.66;5010183;28;20181;-68
2024/01/28 07:55:52;;;;;;;24.17;12.32;;;;;;;4.65;98.29;100370.47;5011272;28;20438;-68
2024/01/28 07:58:22;;;;;;;19.67;11.82;;;;;;;4.81;97.06;100382.66;4995822;28;20060;-66
2024/01/28 08:00:53;;;;;;;16.55;10.43;;;;;;;4.88;96.42;100397.88;5013918;28;20056;-71
2024/01/28 08:03:21;;;;;;;18.95;11.30;;;;;;;4.88;95.46;100390.97;5017309;28;20403;-69
2024/01/28 08:05:47;;;;;;;17.27;11.02;;;;;;;4.95;95.91;100387.22;4996150;28;20079;-68
2024/01/28 08:08:12;;;;;;;19.75;11.27;;;;;;;4.80;94.65;100375.84;5010364;28;20025;-68
2024/01/28 08:10:38;;;;;;;21.90;12.18;;;;;;;5.00;94.51;100398.19;5013486;28;20052;-66
2024/01/28 08:13:06;;;;;;;17.38;10.35;;;;;;;5.03;94.95;100396.38;5005316;28;20025;-69
2024/01/28 08:15:31;;;;;;;21.40;11.82;;;;;;;4.96;95.76;100406.94;5011037;28;20115;-68
2024/01/28 08:18:00;;;;;;;17.10;10.70;;;;;;;5.03;94.60;100396.38;5020670;28;20025;-68
2024/01/28 08:20:25;;;;;;;16.77;10.35;;;;;;;5.09;95.01;100399.53;4999768;28;20476;-68
2024/01/28 08:22:51;;;;;;;20.50;9.68;;;;;;;5.04;94.57;100398.91;4999456;28;20033;-69
2024/01/28 08:25:19;;;;;;;21.00;11.88;;;;;;;5.01;93.62;100399.03;5014080;28;20187;-68
2024/01/28 08:27:47;;;;;;;18.77;11.82;;;;;;;4.96;93.94;100403.53;4997938;28;20995;-70
2024/01/28 08:30:17;;;;;;;17.30;11.07;;;;;;;5.07;93.53;100410.81;5013734;28;20597;-68
2024/01/28 08:32:43;;;;;;;20.45;12.05;;;;;;;4.99;93.63;100377.63;5001321;28;20018;-66
2024/01/28 08:35:08;;;;;;;18.27;11.88;;;;;;;5.08;95.32;100410.75;5021233;28;20077;-67
2024/01/28 08:37:36;;;;;;;21.17;12.70;;;;;;;5.00;94.88;100411.09;5008821;28;20100;-70
2024/01/28 08:40:04;;;;;;;19.05;11.57;;;;;;;4.79;93.41;100392.19;5010552;28;20124;-68
2024/01/28 08:42:29;;;;;;;20.90;11.55;;;;;;;4.88;92.54;100410.75;4993664;28;20065;-67
2024/01/28 08:44:55;;;;;;;20.50;12.45;;;;;;;4.89;91.94;100413.28;5016574;28;20524;-66
2024/01/28 08:47:20;;;;;;;19.52;12.88;;;;;;;4.71;91.17;100365.91;5021408;28;20764;-68
2024/01/28 08:49:48;;;;;;;20.77;13.02;;;;;;;4.94;91.00;100403.59;5001251;28;20025;-66
2024/01/28 08:52:13;;;;;;;20.15;12.00;;;;;;;4.85;90.65;100406.56;5016298;28;20104;-69
2024/01/28 08:54:39;;;;;;;20.38;12.60;;;;;;;4.92;89.77;100414.88;5014461;28;20094;-70
2024/01/28 08:57:04;;;;;;;18.60;10.80;;;;;;;4.91;88.96;100410.59;5012595;28;20045;-71
2024/01/28 08:59:30;;;;;;;21.77;12.70;;;;;;;4.97;88.52;100412.94;4998208;28;20172;-69
2024/01/28 09:01:57;;;;;;;21.45;12.18;;;;;;;4.96;87.92;100424.16;5013392;28;20038;-67
2024/01/28 09:04:23;;;;;;;23.63;12.23;;;;;;;4.53;89.43;100372.66;4987362;28;20037;-70
2024/01/28 09:06:48;;;;;;;21.95;13.18;;;;;;;4.85;89.85;100422.03;4995841;28;20087;-68
2024/01/28 09:09:16;;;;;;;20.02;11.68;;;;;;;4.65;90.59;100384.19;5010226;28;20515;-67
2024/01/28 09:11:42;;;;;;;18.75;11.18;;;;;;;4.98;90.33;100424.91;5013169;28;20279;-69
2024/01/28 09:14:10;;;;;;;16.08;10.45;;;;;;;5.08;89.80;100428.78;5015195;28;20039;-67
2024/01/28 09:16:35;;;;;;;19.73;11.50;;;;;;;5.22;90.16;100435.94;4995880;28;20032;-67
2024/01/28 09:19:04;;;;;;;17.48;10.77;;;;;;;5.14;89.57;100432.84;5020912;28;20036;-66
2024/01/28 09:21:32;;;;;;;16.42;10.88;;;;;;;5.15;87.22;100432.78;5007799;28;20021;-68
2024/01/28 09:23:59;;;;;;;16.77;10.95;;;;;;;5.24;87.42;100434.16;4998908;28;20172;-63
2024/01/28 09:26:25;;;;;;;17.33;10.52;;;;;;;5.15;88.40;100421.66;5004285;28;20065;-67
2024/01/28 09:28:50;;;;;;;18.50;11.00;;;;;;;5.18;89.42;100427.50;5011867;28;20442;-67
2024/01/28 09:31:20;;;;;;;17.20;12.10;;;;;;;5.23;89.61;100431.63;4997421;28;20398;-66
2024/01/28 09:33:46;;;;;;;17.77;11.18;;;;;;;5.02;90.65;100380.06;5005872;28;20037;-66
2024/01/28 09:36:11;;;;;;;20.35;11.90;;;;;;;5.31;88.73;100440.72;4998354;28;20049;-68
2024/01/28 09:38:39;;;;;;;16.95;10.50;;;;;;;5.32;89.31;100436.38;5015519;28;20053;-68
2024/01/28 09:41:16;;;;;;;18.75;10.52;;;;;;;5.31;90.00;100437.28;4993963;28;20033;-69
2024/01/28 09:43:44;;;;;;;16.20;10.48;;;;;;;5.38;88.75;100444.72;4993313;28;20037;-69
2024/01/28 09:46:09;;;;;;;16.83;11.18;;;;;;;5.12;89.46;100412.28;5002647;28;20498;-69
2024/01/28 09:48:37;;;;;;;17.63;11.05;;;;;;;5.22;88.85;100435.94;5008139;28;20025;-69
2024/01/28 09:51:03;;;;;;;17.70;11.00;;;;;;;5.26;88.84;100450.38;4994622;28;20091;-69
2024/01/28 09:53:31;;;;;;;14.52;9.63;;;;;;;5.25;89.93;100448.69;5013227;28;20644;-65
2024/01/28 09:55:56;;;;;;;17.10;10.43;;;;;;;5.30;89.33;100446.75;5000378;28;20099;-68
2024/01/28 09:58:22;;;;;;;17.83;11.18;;;;;;;5.36;88.42;100453.41;5019307;28;20045;-66
2024/01/28 10:00:50;;;;;;;19.33;11.57;;;;;;;5.24;87.91;100444.47;4999825;28;20471;-69
2024/01/28 10:03:19;;;;;;;21.42;11.30;;;;;;;5.16;87.36;100462.00;4994741;28;20399;-67
2024/01/28 10:05:44;;;;;;;20.50;11.93;;;;;;;5.01;87.85;100463.47;5026841;28;20692;-70
2024/01/28 10:08:13;;;;;;;21.40;10.98;;;;;;;5.16;87.81;100462.00;4999785;28;20275;-67
2024/01/28 10:10:41;;;;;;;20.67;13.70;;;;;;;5.23;88.00;100457.41;4988211;28;20041;-70
2024/01/28 10:13:09;;;;;;;20.08;11.93;;;;;;;5.32;88.91;100455.28;4991104;28;20028;-67
2024/01/28 10:15:37;;;;;;;17.33;11.65;;;;;;;5.48;88.01;100455.44;5005742;28;20883;-67
2024/01/28 10:18:03;;;;;;;19.48;12.00;;;;;;;5.68;86.91;100461.50;5012449;28;20021;-69
2024/01/28 10:20:29;;;;;;;15.80;10.15;;;;;;;5.62;80.68;100454.00;4991605;28;20044;-70
2024/01/28 10:22:57;;;;;;;18.20;10.13;;;;;;;5.75;80.21;100453.41;4993507;28;20025;-67
2024/01/28 10:25:23;;;;;;;15.75;9.35;;;;;;;5.84;77.88;100448.72;5015169;28;20079;-67
2024/01/28 10:27:51;;;;;;;16.20;9.23;;;;;;;5.72;75.90;100398.50;5009678;28;20116;-69
2024/01/28 10:30:22;;;;;;;16.25;9.07;;;;;;;6.00;75.61;100430.81;5030208;28;20225;-70
2024/01/28 10:32:47;;;;;;;16.75;8.77;;;;;;;6.24;71.27;100444.31;4990119;28;20021;-70
2024/01/28 10:35:16;;;;;;;16.35;9.93;;;;;;;6.31;67.70;100433.63;4991562;28;20446;-68
2024/01/28 10:37:45;;;;;;;16.52;10.00;;;;;;;6.47;65.25;100443.22;4994296;28;20053;-69
2024/01/28 10:40:16;;;;;;;15.33;9.00;;;;;;;6.26;65.84;100372.75;5011270;28;20032;-68
2024/01/28 10:42:42;;;;;;;16.52;9.02;;;;;;;6.88;66.06;100436.06;5002358;28;20030;-69
2024/01/28 10:45:12;;;;;;;14.75;8.10;;;;;;;6.81;65.42;100407.97;4996498;28;20032;-68
2024/01/28 10:47:44;;;;;;;15.70;7.90;;;;;;;7.01;64.67;100428.50;5031498;28;20148;-67
2024/01/28 10:50:14;;;;;;;13.13;7.78;;;;;;;7.04;63.95;100419.75;5008921;28;20140;-67
2024/01/28 10:52:40;;;;;;;13.30;7.65;;;;;;;7.03;64.38;100408.56;4992594;28;20593;-70
2024/01/28 10:55:06;;;;;;;14.98;7.68;;;;;;;7.16;64.33;100418.31;5044104;28;20086;-67
2024/01/28 10:57:38;;;;;;;13.63;7.85;;;;;;;6.99;64.34;100381.19;4996872;28;20482;-67
2024/01/28 11:00:10;;;;;;;13.48;7.72;;;;;;;7.15;65.08;100404.50;4993820;28;20033;-70
2024/01/28 11:02:36;;;;;;;14.57;7.70;;;;;;;7.18;64.45;100403.53;4995178;28;20025;-70
2024/01/28 11:05:03;;;;;;;14.52;8.18;;;;;;;7.21;65.53;100405.94;4996600;28;21305;-70
2024/01/28 11:07:28;;;;;;;18.05;8.38;;;;;;;7.18;64.30;100398.34;5023808;28;20044;-67
2024/01/28 11:09:57;;;;;;;13.68;7.68;;;;;;;7.10;60.93;100378.03;5008510;28;20413;-67
2024/01/28 11:12:23;;;;;;;13.40;6.63;;;;;;;7.32;60.69;100398.47;4993640;28;20053;-66
2024/01/28 11:14:54;;;;;;;13.40;7.68;;;;;;;7.31;61.52;100387.28;5019862;28;20797;-67